createdAt,value
2019-02-19T00:01:17.028Z,-5.17
2019-02-19T00:03:47.271Z,-5.13
2019-02-19T00:06:17.936Z,-5.14
2019-02-19T00:08:48.429Z,-5.14
2019-02-19T00:11:18.381Z,-5.16
2019-02-19T00:13:48.755Z,-5.15
2019-02-19T00:16:19.018Z,-5.14
2019-02-19T00:18:49.157Z,-5.14
2019-02-19T00:21:19.583Z,-5.12
2019-02-19T00:23:50.130Z,-5.11
2019-02-19T00:26:20.069Z,-5.10
2019-02-19T00:28:50.104Z,-5.08
2019-02-19T00:31:20.149Z,-5.05
2019-02-19T00:33:50.316Z,-5.04
2019-02-19T00:36:21.359Z,-5.03
2019-02-19T00:38:51.699Z,-5.04
2019-02-19T00:41:21.699Z,-5.07
2019-02-19T00:43:51.859Z,-5.09
2019-02-19T00:46:22.111Z,-5.13
2019-02-19T00:48:52.271Z,-5.17
2019-02-19T00:51:22.814Z,-5.20
2019-02-19T00:53:53.317Z,-5.26
2019-02-19T00:56:23.586Z,-5.30
2019-02-19T00:58:54.029Z,-5.31
2019-02-19T01:01:24.940Z,-5.31
2019-02-19T01:03:55.352Z,-5.31
2019-02-19T01:06:25.670Z,-5.33
2019-02-19T01:08:56.404Z,-5.34
2019-02-19T01:11:29.040Z,-5.26
2019-02-19T01:14:01.932Z,-5.25
2019-02-19T01:16:32.800Z,-5.28
2019-02-19T01:19:03.337Z,-5.27
2019-02-19T01:21:34.116Z,-5.30
2019-02-19T01:24:04.406Z,-5.29
2019-02-19T01:26:34.522Z,-5.28
2019-02-19T01:29:04.832Z,-5.33
2019-02-19T01:31:34.924Z,-5.30
2019-02-19T01:34:05.153Z,-5.32
2019-02-19T01:36:35.440Z,-5.32
2019-02-19T01:39:06.262Z,-5.35
2019-02-19T01:41:36.675Z,-5.37
2019-02-19T01:44:07.340Z,-5.42
2019-02-19T01:46:37.954Z,-5.44
2019-02-19T01:49:08.868Z,-5.42
2019-02-19T01:51:39.159Z,-5.42
2019-02-19T01:54:09.413Z,-5.43
2019-02-19T01:56:39.675Z,-5.47
2019-02-19T01:59:10.096Z,-5.48
2019-02-19T02:01:40.676Z,-5.50
2019-02-19T02:04:10.926Z,-5.51
2019-02-19T02:06:42.131Z,-5.51
2019-02-19T02:09:12.457Z,-5.50
2019-02-19T02:11:42.849Z,-5.48
2019-02-19T02:14:13.564Z,-5.49
2019-02-19T02:16:43.899Z,-5.48
2019-02-19T02:19:14.600Z,-5.46
2019-02-19T02:21:45.047Z,-5.42
2019-02-19T02:24:15.202Z,-5.41
2019-02-19T02:26:46.374Z,-5.41
2019-02-19T02:29:17.413Z,-5.39
2019-02-19T02:31:47.859Z,-5.38
2019-02-19T02:34:18.519Z,-5.38
2019-02-19T02:36:49.188Z,-5.37
2019-02-19T02:39:20.031Z,-5.35
2019-02-19T02:41:50.511Z,-5.34
2019-02-19T02:44:20.711Z,-5.34
2019-02-19T02:46:51.129Z,-5.31
2019-02-19T02:49:21.949Z,-5.26
2019-02-19T02:51:52.322Z,-5.20
2019-02-19T02:54:22.367Z,-5.17
2019-02-19T02:56:52.709Z,-5.13
2019-02-19T02:59:22.811Z,-5.10
2019-02-19T03:01:53.632Z,-5.07
2019-02-19T03:04:24.505Z,-5.02
2019-02-19T03:07:17.011Z,-4.97
2019-02-19T03:09:47.323Z,-4.83
2019-02-19T03:12:17.897Z,-4.62
2019-02-19T03:14:48.382Z,-4.37
2019-02-19T03:17:18.836Z,-4.16
2019-02-19T03:19:50.066Z,-3.94
2019-02-19T03:22:20.363Z,-3.76
2019-02-19T03:25:00.368Z,-3.62
2019-02-19T03:27:33.046Z,-3.48
2019-02-19T03:30:03.710Z,-3.34
2019-02-19T03:32:33.924Z,-3.26
2019-02-19T03:35:11.260Z,-3.19
2019-02-19T03:37:41.687Z,-3.09
2019-02-19T03:40:11.807Z,-3.08
2019-02-19T03:42:42.160Z,-3.12
2019-02-19T03:45:12.397Z,-3.12
2019-02-19T03:47:42.730Z,-3.11
2019-02-19T03:50:12.990Z,-3.11
2019-02-19T03:52:43.463Z,-3.08
2019-02-19T03:55:13.580Z,-3.06
2019-02-19T03:57:43.969Z,-3.03
2019-02-19T04:00:14.293Z,-2.98
2019-02-19T04:02:45.070Z,-2.99
2019-02-19T04:05:15.647Z,-2.98
2019-02-19T04:07:45.976Z,-2.98
2019-02-19T04:10:16.373Z,-2.99
2019-02-19T04:12:46.813Z,-3.00
2019-02-19T04:15:17.213Z,-3.01
2019-02-19T04:17:47.993Z,-3.02
2019-02-19T04:20:18.198Z,-3.06
2019-02-19T04:22:48.722Z,-3.05
2019-02-19T04:25:19.151Z,-3.03
2019-02-19T04:27:49.674Z,-3.11
2019-02-19T04:30:20.125Z,-3.23
2019-02-19T04:32:50.598Z,-3.34
2019-02-19T04:35:21.011Z,-3.41
2019-02-19T04:37:51.759Z,-3.46
2019-02-19T04:40:22.194Z,-3.51
2019-02-19T04:42:52.724Z,-3.61
2019-02-19T04:45:22.962Z,-3.67
2019-02-19T04:47:53.249Z,-3.71
2019-02-19T04:50:23.640Z,-3.78
2019-02-19T04:52:54.089Z,-3.83
2019-02-19T04:55:24.658Z,-3.86
2019-02-19T04:57:55.520Z,-3.88
2019-02-19T05:00:34.073Z,-3.89
2019-02-19T05:03:05.324Z,-3.92
2019-02-19T05:05:35.474Z,-3.89
2019-02-19T05:08:05.909Z,-3.89
2019-02-19T05:10:36.245Z,-3.90
2019-02-19T05:13:06.784Z,-3.85
2019-02-19T05:15:37.604Z,-3.78
2019-02-19T05:18:08.943Z,-3.76
2019-02-19T05:20:40.149Z,-3.71
2019-02-19T05:23:11.313Z,-3.60
2019-02-19T05:25:44.180Z,-3.50
2019-02-19T05:28:15.104Z,-3.42
2019-02-19T05:30:45.388Z,-3.35
2019-02-19T05:33:15.802Z,-3.31
2019-02-19T05:35:46.108Z,-3.36
2019-02-19T05:38:16.327Z,-3.39
2019-02-19T05:40:46.733Z,-3.43
2019-02-19T05:43:17.260Z,-3.46
2019-02-19T05:45:47.658Z,-3.37
2019-02-19T05:48:18.358Z,-3.37
2019-02-19T05:50:49.190Z,-3.40
2019-02-19T05:53:19.916Z,-3.39
2019-02-19T05:55:50.153Z,-3.40
2019-02-19T05:58:21.005Z,-3.37
2019-02-19T06:00:51.420Z,-3.37
2019-02-19T06:03:21.943Z,-3.38
2019-02-19T06:05:52.639Z,-3.38
2019-02-19T06:08:23.371Z,-3.28
2019-02-19T06:10:54.215Z,-3.22
2019-02-19T06:13:24.692Z,-3.17
2019-02-19T06:15:55.183Z,-3.03
2019-02-19T06:18:26.161Z,-2.96
2019-02-19T06:20:56.617Z,-2.85
2019-02-19T06:23:27.278Z,-2.80
2019-02-19T06:25:57.386Z,-2.73
2019-02-19T06:28:27.877Z,-2.68
2019-02-19T06:31:00.569Z,-2.61
2019-02-19T06:33:35.071Z,-2.54
2019-02-19T06:36:06.108Z,-2.52
2019-02-19T06:38:36.763Z,-2.46
2019-02-19T06:41:07.356Z,-2.39
2019-02-19T06:43:38.131Z,-2.32
2019-02-19T06:46:08.533Z,-2.24
2019-02-19T06:48:39.118Z,-2.13
2019-02-19T06:51:10.002Z,-2.10
2019-02-19T06:53:40.631Z,-1.99
2019-02-19T06:56:11.278Z,-1.90
2019-02-19T06:58:41.871Z,-1.79
2019-02-19T07:01:13.211Z,-1.71
2019-02-19T07:04:03.155Z,-1.64
2019-02-19T07:06:34.263Z,-1.54
2019-02-19T07:09:06.430Z,-1.43
2019-02-19T07:11:37.681Z,-1.32
2019-02-19T07:14:08.365Z,-1.23
2019-02-19T07:16:39.559Z,-1.11
2019-02-19T07:19:10.823Z,-0.98
2019-02-19T07:21:41.993Z,-0.89
2019-02-19T07:24:12.702Z,-0.79
2019-02-19T07:26:43.513Z,-0.70
2019-02-19T07:29:15.118Z,-0.61
2019-02-19T07:31:45.984Z,-0.49
2019-02-19T07:34:17.035Z,-0.40
2019-02-19T07:36:47.906Z,-0.35
2019-02-19T07:39:18.336Z,-0.25
2019-02-19T07:41:49.031Z,-0.18
2019-02-19T07:44:19.725Z,-0.13
2019-02-19T07:46:51.035Z,-0.11
2019-02-19T07:49:23.130Z,-0.04
2019-02-19T07:51:53.897Z,0.06
2019-02-19T07:54:25.267Z,0.13
2019-02-19T07:56:56.334Z,0.20
2019-02-19T07:59:26.802Z,0.20
2019-02-19T08:01:59.128Z,0.25
2019-02-19T08:04:32.151Z,0.28
2019-02-19T08:07:02.682Z,0.33
2019-02-19T08:09:33.073Z,0.39
2019-02-19T08:12:03.907Z,0.43
2019-02-19T08:14:34.683Z,0.54
2019-02-19T08:17:05.933Z,0.61
2019-02-19T08:19:36.582Z,0.64
2019-02-19T08:22:07.413Z,0.72
2019-02-19T08:24:37.871Z,0.77
2019-02-19T08:27:08.775Z,0.82
2019-02-19T08:29:40.108Z,0.88
2019-02-19T08:32:10.881Z,0.92
2019-02-19T08:34:40.918Z,0.90
2019-02-19T08:37:11.744Z,0.93
2019-02-19T08:39:42.308Z,0.96
2019-02-19T08:42:13.321Z,1.03
2019-02-19T08:44:43.974Z,1.08
2019-02-19T08:47:15.011Z,1.17
2019-02-19T08:49:45.581Z,1.26
2019-02-19T08:52:16.358Z,1.31
2019-02-19T08:54:46.897Z,1.31
2019-02-19T08:57:17.668Z,1.41
2019-02-19T08:59:48.783Z,1.48
2019-02-19T09:02:19.590Z,1.55
2019-02-19T09:04:50.821Z,1.60
2019-02-19T09:07:21.835Z,1.63
2019-02-19T09:09:52.734Z,1.66
2019-02-19T09:12:23.184Z,1.74
2019-02-19T09:14:53.775Z,1.76
2019-02-19T09:17:24.669Z,1.85
2019-02-19T09:19:55.061Z,1.92
2019-02-19T09:22:25.764Z,1.94
2019-02-19T09:24:56.429Z,1.98
2019-02-19T09:27:27.091Z,1.99
2019-02-19T09:29:57.959Z,2.05
2019-02-19T09:32:29.047Z,2.13
2019-02-19T09:34:59.384Z,2.20
2019-02-19T09:37:29.925Z,2.20
2019-02-19T09:40:00.320Z,2.18
2019-02-19T09:42:31.371Z,2.22
2019-02-19T09:45:01.729Z,2.25
2019-02-19T09:47:32.312Z,2.37
2019-02-19T09:50:02.751Z,2.45
2019-02-19T09:52:33.203Z,2.49
2019-02-19T09:55:04.183Z,2.57
2019-02-19T09:57:35.361Z,2.58
2019-02-19T10:00:07.679Z,2.65
2019-02-19T10:02:38.933Z,2.75
2019-02-19T10:05:10.435Z,2.79
2019-02-19T10:07:42.072Z,2.86
2019-02-19T10:10:14.781Z,2.86
2019-02-19T10:12:46.607Z,2.89
2019-02-19T10:15:16.926Z,2.91
2019-02-19T10:17:47.799Z,2.94
2019-02-19T10:20:19.383Z,2.97
2019-02-19T10:22:51.228Z,2.95
2019-02-19T10:25:22.164Z,2.95
2019-02-19T10:27:53.572Z,3.02
2019-02-19T10:30:24.587Z,3.09
2019-02-19T10:32:55.508Z,3.16
2019-02-19T10:35:26.234Z,3.16
2019-02-19T10:37:56.733Z,3.22
2019-02-19T10:40:27.380Z,3.26
2019-02-19T10:42:58.308Z,3.28
2019-02-19T10:45:29.274Z,3.29
2019-02-19T10:48:00.936Z,3.31
2019-02-19T10:50:31.284Z,3.31
2019-02-19T10:53:01.826Z,3.32
2019-02-19T10:55:32.395Z,3.34
2019-02-19T10:58:03.150Z,3.32
2019-02-19T11:00:33.728Z,3.34
2019-02-19T11:03:04.418Z,3.43
2019-02-19T11:05:35.721Z,3.40
2019-02-19T11:08:06.343Z,3.44
2019-02-19T11:10:37.298Z,3.48
2019-02-19T11:13:07.685Z,3.54
2019-02-19T11:15:38.085Z,3.54
2019-02-19T11:18:08.769Z,3.56
2019-02-19T11:20:39.170Z,3.62
2019-02-19T11:23:10.180Z,3.64
2019-02-19T11:25:40.696Z,3.67
2019-02-19T11:28:11.579Z,3.69
2019-02-19T11:30:42.561Z,3.74
2019-02-19T11:33:13.041Z,3.76
2019-02-19T11:35:43.641Z,3.79
2019-02-19T11:38:14.324Z,3.84
2019-02-19T11:40:44.939Z,3.86
2019-02-19T11:43:15.967Z,3.88
2019-02-19T11:45:46.623Z,3.88
2019-02-19T11:48:19.098Z,3.89
2019-02-19T11:54:28.564Z,3.87
2019-02-19T11:56:59.350Z,3.82
2019-02-19T11:59:30.193Z,3.82
2019-02-19T12:02:02.813Z,3.81
2019-02-19T12:04:33.887Z,3.81
2019-02-19T12:07:04.458Z,3.81
2019-02-19T12:09:35.227Z,3.88
2019-02-19T12:12:06.343Z,3.89
2019-02-19T12:14:36.911Z,3.92
2019-02-19T12:17:09.200Z,3.92
2019-02-19T12:19:39.885Z,3.93
2019-02-19T12:22:10.555Z,3.94
2019-02-19T12:24:40.979Z,3.99
2019-02-19T12:27:11.397Z,4.02
2019-02-19T12:29:41.947Z,4.01
2019-02-19T12:32:12.537Z,4.05
2019-02-19T12:34:43.348Z,4.08
2019-02-19T12:37:14.732Z,4.12
2019-02-19T12:39:45.655Z,4.12
2019-02-19T12:42:16.288Z,4.15
2019-02-19T12:44:47.134Z,4.16
2019-02-19T12:47:18.698Z,4.23
2019-02-19T12:49:49.489Z,4.26
2019-02-19T12:52:19.776Z,4.29
2019-02-19T12:54:50.739Z,4.33
2019-02-19T12:57:21.708Z,4.38
2019-02-19T12:59:56.520Z,4.33
2019-02-19T13:02:24.882Z,4.36
2019-02-19T13:04:55.834Z,4.38
2019-02-19T13:07:26.572Z,4.37
2019-02-19T13:09:57.231Z,4.85
2019-02-19T13:12:27.927Z,5.92
2019-02-19T13:14:58.373Z,6.75
2019-02-19T13:17:29.180Z,7.29
2019-02-19T13:19:59.543Z,7.69
2019-02-19T13:22:29.982Z,7.40
2019-02-19T13:25:00.760Z,6.70
2019-02-19T13:27:31.382Z,6.32
2019-02-19T13:30:02.330Z,5.86
2019-02-19T13:32:34.210Z,5.47
2019-02-19T13:35:05.617Z,5.27
2019-02-19T13:37:44.258Z,5.32
2019-02-19T13:40:16.035Z,5.31
2019-02-19T13:42:49.127Z,5.48
2019-02-19T13:45:23.147Z,5.31
2019-02-19T13:47:54.928Z,5.02
2019-02-19T13:50:26.304Z,4.76
2019-02-19T13:53:04.353Z,4.53
2019-02-19T13:55:38.307Z,4.33
2019-02-19T13:58:10.597Z,4.17
2019-02-19T14:00:42.905Z,4.01
2019-02-19T14:03:15.306Z,3.90
2019-02-19T14:05:56.609Z,3.78
2019-02-19T14:08:31.454Z,3.68
2019-02-19T14:11:02.208Z,3.57
2019-02-19T14:13:36.150Z,3.51
2019-02-19T14:16:14.052Z,3.40
2019-02-19T14:18:55.318Z,3.29
2019-02-19T14:21:40.127Z,3.20
2019-02-19T14:24:27.708Z,3.16
2019-02-19T14:27:09.327Z,3.07
2019-02-19T14:29:57.663Z,3.02
2019-02-19T14:32:45.787Z,2.94
2019-02-19T14:35:34.363Z,2.83
2019-02-19T14:38:22.465Z,2.72
2019-02-19T14:41:18.584Z,2.67
2019-02-19T14:44:07.319Z,2.67
2019-02-19T14:46:57.092Z,2.66
2019-02-19T14:49:51.506Z,2.64
2019-02-19T14:52:41.211Z,2.69
2019-02-19T14:55:23.706Z,2.69
2019-02-19T14:58:13.501Z,2.65
2019-02-19T15:01:02.673Z,2.66
2019-02-19T15:03:54.231Z,2.63
2019-02-19T15:06:38.732Z,2.60
2019-02-19T15:09:46.648Z,2.62
2019-02-19T15:12:48.400Z,2.64
2019-02-19T15:15:43.045Z,2.73
2019-02-19T15:18:37.087Z,2.83
2019-02-19T15:21:22.722Z,2.76
2019-02-19T15:24:05.969Z,2.75
2019-02-19T15:26:51.018Z,2.70
2019-02-19T15:29:50.070Z,2.70
2019-02-19T15:32:38.486Z,2.60
2019-02-19T15:35:26.765Z,2.48
2019-02-19T15:38:16.845Z,2.35
2019-02-19T15:41:10.181Z,2.29
2019-02-19T15:43:54.279Z,2.23
2019-02-19T15:46:56.543Z,2.14
2019-02-19T15:49:59.054Z,2.14
2019-02-19T15:53:07.223Z,1.98
2019-02-19T15:55:57.366Z,2.01
2019-02-19T15:58:45.628Z,1.99
2019-02-19T16:01:35.905Z,1.96
2019-02-19T16:04:17.511Z,1.97
2019-02-19T16:07:07.922Z,2.02
2019-02-19T16:09:44.313Z,2.01
2019-02-19T16:12:51.371Z,2.00
2019-02-19T16:15:43.638Z,2.04
2019-02-19T16:18:34.591Z,1.93
2019-02-19T16:21:30.233Z,1.88
2019-02-19T16:24:11.871Z,1.80
2019-02-19T16:27:19.878Z,1.74
2019-02-19T16:30:00.049Z,1.69
2019-02-19T16:32:49.096Z,1.67
2019-02-19T16:35:43.481Z,1.65
2019-02-19T16:38:32.265Z,1.59
2019-02-19T16:41:15.447Z,1.57
2019-02-19T16:44:12.278Z,1.56
2019-02-19T16:46:57.993Z,1.46
2019-02-19T16:49:46.494Z,1.38
2019-02-19T16:52:48.391Z,1.35
2019-02-19T16:55:41.446Z,1.32
2019-02-19T16:58:26.848Z,1.29
2019-02-19T17:01:14.685Z,1.28
2019-02-19T17:04:23.236Z,1.27
2019-02-19T17:07:16.270Z,1.21
2019-02-19T17:10:06.356Z,1.20
2019-02-19T17:13:07.197Z,1.18
2019-02-19T17:15:59.785Z,1.14
2019-02-19T17:18:48.477Z,1.10
2019-02-19T17:21:32.072Z,1.12
2019-02-19T17:24:21.947Z,1.12
2019-02-19T17:27:05.174Z,1.18
2019-02-19T17:29:41.891Z,1.27
2019-02-19T17:32:40.705Z,1.36
2019-02-19T17:35:28.794Z,1.41
2019-02-19T17:38:14.727Z,1.42
2019-02-19T17:40:51.603Z,1.38
2019-02-19T17:43:33.202Z,1.32
2019-02-19T17:46:33.114Z,1.24
2019-02-19T17:49:29.584Z,1.22
2019-02-19T17:52:22.108Z,1.19
2019-02-19T17:55:10.119Z,1.16
2019-02-19T17:57:58.627Z,1.26
2019-02-19T18:00:51.537Z,1.25
2019-02-19T18:03:41.551Z,1.23
2019-02-19T18:06:30.042Z,1.17
2019-02-19T18:09:16.559Z,1.16
2019-02-19T18:12:20.956Z,1.17
2019-02-19T18:15:13.994Z,1.13
2019-02-19T18:18:03.085Z,1.09
2019-02-19T18:20:34.033Z,1.10
2019-02-19T18:23:04.627Z,1.11
2019-02-19T18:25:34.898Z,1.15
2019-02-19T18:28:05.577Z,1.14
2019-02-19T18:30:36.016Z,1.14
2019-02-19T18:33:06.831Z,1.14
2019-02-19T18:35:37.402Z,1.10
2019-02-19T18:38:07.944Z,1.08
2019-02-19T18:40:38.612Z,1.09
2019-02-19T18:43:08.915Z,1.10
2019-02-19T18:45:39.223Z,1.10
2019-02-19T18:48:09.502Z,1.13
2019-02-19T18:50:39.916Z,1.14
2019-02-19T18:53:10.188Z,1.12
2019-02-19T18:55:41.145Z,1.13
2019-02-19T18:58:14.786Z,1.16
2019-02-19T19:00:45.189Z,1.23
2019-02-19T19:03:15.573Z,1.24
2019-02-19T19:05:45.811Z,1.22
2019-02-19T19:08:19.212Z,1.20
2019-02-19T19:10:52.326Z,1.19
2019-02-19T19:13:29.837Z,1.17
2019-02-19T19:15:57.507Z,1.22
2019-02-19T19:18:28.190Z,1.21
2019-02-19T19:21:07.456Z,1.19
2019-02-19T19:23:31.448Z,1.21
2019-02-19T19:26:01.756Z,1.22
2019-02-19T19:28:32.346Z,1.20
2019-02-19T19:31:04.115Z,1.20
2019-02-19T19:34:03.140Z,1.16
2019-02-19T19:36:37.422Z,1.13
2019-02-19T19:39:19.929Z,1.07
2019-02-19T19:47:56.701Z,1.06
2019-02-19T19:50:27.091Z,1.06
2019-02-19T19:52:58.065Z,1.05
2019-02-19T19:55:28.682Z,1.02
2019-02-19T19:58:02.954Z,1.00
2019-02-19T20:00:33.312Z,0.96
2019-02-19T20:03:03.664Z,0.93
2019-02-19T20:05:34.032Z,0.93
2019-02-19T20:08:04.709Z,0.93
2019-02-19T20:10:37.249Z,0.93
2019-02-19T20:13:07.663Z,0.92
2019-02-19T20:15:39.535Z,0.94
2019-02-19T20:18:10.907Z,0.90
2019-02-19T20:20:41.074Z,0.86
2019-02-19T20:23:12.307Z,0.92
2019-02-19T20:25:42.883Z,0.92
2019-02-19T20:28:13.036Z,0.91
2019-02-19T20:30:43.569Z,0.96
2019-02-19T20:33:14.100Z,0.96
2019-02-19T20:35:44.521Z,1.02
2019-02-19T20:38:15.688Z,1.11
2019-02-19T20:40:46.398Z,1.14
2019-02-19T20:43:16.635Z,1.13
2019-02-19T20:45:46.897Z,1.07
2019-02-19T20:48:17.745Z,0.99
2019-02-19T20:50:48.284Z,0.88
2019-02-19T20:53:18.901Z,0.90
2019-02-19T20:55:49.057Z,0.99
2019-02-19T20:58:20.102Z,1.10
2019-02-19T21:00:50.731Z,1.26
2019-02-19T21:03:20.954Z,1.34
2019-02-19T21:05:51.903Z,1.46
2019-02-19T21:08:22.298Z,1.54
2019-02-19T21:10:52.820Z,1.62
2019-02-19T21:13:23.278Z,1.71
2019-02-19T21:15:53.878Z,1.77
2019-02-19T21:18:24.254Z,1.78
2019-02-19T21:20:55.063Z,1.83
2019-02-19T21:23:25.818Z,1.86
2019-02-19T21:25:56.032Z,1.89
2019-02-19T21:28:26.539Z,1.91
2019-02-19T21:30:57.211Z,1.91
2019-02-19T21:33:27.927Z,1.90
2019-02-19T21:35:58.892Z,1.82
2019-02-19T21:38:29.398Z,1.73
2019-02-19T21:41:00.760Z,1.60
2019-02-19T21:43:31.333Z,1.42
2019-02-19T21:46:02.489Z,1.27
2019-02-19T21:48:32.744Z,1.15
2019-02-19T21:51:02.907Z,1.09
2019-02-19T21:53:33.399Z,1.04
2019-02-19T21:56:03.855Z,1.04
2019-02-19T21:58:34.130Z,1.01
2019-02-19T22:01:04.864Z,0.98
2019-02-19T22:03:35.078Z,0.95
2019-02-19T22:06:05.357Z,0.91
2019-02-19T22:08:35.521Z,0.89
2019-02-19T22:11:06.673Z,0.93
2019-02-19T22:13:37.676Z,0.91
2019-02-19T22:16:08.547Z,0.92
2019-02-19T22:18:39.372Z,0.94
2019-02-19T22:21:29.440Z,0.94
2019-02-19T22:23:59.982Z,0.95
2019-02-19T22:26:30.442Z,0.89
2019-02-19T22:29:01.075Z,0.85
2019-02-19T22:31:31.486Z,0.86
2019-02-19T22:34:01.790Z,0.86
2019-02-19T22:36:31.812Z,0.85
2019-02-19T22:39:02.313Z,0.81
2019-02-19T22:41:33.086Z,0.76
2019-02-19T22:44:03.408Z,0.75
2019-02-19T22:46:34.719Z,0.73
2019-02-19T22:49:05.541Z,0.68
2019-02-19T22:51:35.851Z,0.62
2019-02-19T22:54:11.218Z,0.60
2019-02-19T22:56:44.343Z,0.59
2019-02-19T22:59:14.868Z,0.65
2019-02-19T23:02:17.505Z,0.69
2019-02-19T23:04:47.901Z,0.66
2019-02-19T23:07:18.376Z,0.65
2019-02-19T23:09:48.832Z,0.76
2019-02-19T23:12:19.377Z,0.88
2019-02-19T23:14:49.934Z,1.05
2019-02-19T23:17:20.844Z,1.20
2019-02-19T23:19:51.088Z,1.31
2019-02-19T23:22:21.968Z,1.38
2019-02-19T23:24:52.771Z,1.46
2019-02-19T23:27:23.312Z,1.47
2019-02-19T23:29:54.226Z,1.49
2019-02-19T23:32:24.969Z,1.48
2019-02-19T23:35:13.428Z,1.46
2019-02-19T23:37:44.090Z,1.44
2019-02-19T23:40:14.243Z,1.38
2019-02-19T23:42:45.469Z,1.28
2019-02-19T23:45:15.896Z,1.21
2019-02-19T23:47:46.420Z,1.04
2019-02-19T23:50:16.729Z,0.92
2019-02-19T23:52:47.211Z,0.79
2019-02-19T23:55:17.889Z,0.67
2019-02-19T23:57:48.391Z,0.58
